sensor_id;sensor_type;location;lat;lon;timestamp;P1;durP1;ratioP1;P2;durP2;ratioP2
17340;SDS011;8788;49.930;8.660;2022-08-21T04:06:56;3.50;;;3.17;;
17340;SDS011;8788;49.930;8.660;2022-08-21T04:09:24;3.30;;;3.00;;
17340;SDS011;8788;49.930;8.660;2022-08-21T04:11:52;3.95;;;3.25;;
17340;SDS011;8788;49.930;8.660;2022-08-21T04:14:20;6.55;;;3.03;;
17340;SDS011;8788;49.930;8.660;2022-08-21T04:16:47;5.32;;;3.38;;
17340;SDS011;8788;49.930;8.660;2022-08-21T04:19:14;4.97;;;3.30;;
17340;SDS011;8788;49.930;8.660;2022-08-21T04:21:43;7.75;;;4.43;;
17340;SDS011;8788;49.930;8.660;2022-08-21T04:24:10;5.25;;;3.53;;
17340;SDS011;8788;49.930;8.660;2022-08-21T04:26:37;5.40;;;3.45;;
17340;SDS011;8788;49.930;8.660;2022-08-21T04:29:05;5.63;;;3.08;;
17340;SDS011;8788;49.930;8.660;2022-08-21T04:31:32;4.93;;;3.15;;
17340;SDS011;8788;49.930;8.660;2022-08-21T04:34:00;3.60;;;3.05;;
17340;SDS011;8788;49.930;8.660;2022-08-21T04:36:27;3.88;;;3.38;;
17340;SDS011;8788;49.930;8.660;2022-08-21T04:38:56;5.18;;;3.58;;
17340;SDS011;8788;49.930;8.660;2022-08-21T04:41:23;5.05;;;3.58;;
17340;SDS011;8788;49.930;8.660;2022-08-21T04:43:51;3.22;;;2.92;;
17340;SDS011;8788;49.930;8.660;2022-08-21T04:46:19;3.97;;;3.55;;
17340;SDS011;8788;49.930;8.660;2022-08-21T04:48:46;6.65;;;3.30;;
17340;SDS011;8788;49.930;8.660;2022-08-21T04:51:16;4.13;;;3.42;;
17340;SDS011;8788;49.930;8.660;2022-08-21T04:53:47;3.78;;;3.28;;
17340;SDS011;8788;49.930;8.660;2022-08-21T04:56:20;5.95;;;3.22;;
17340;SDS011;8788;49.930;8.660;2022-08-21T04:58:50;3.85;;;2.85;;
17340;SDS011;8788;49.930;8.660;2022-08-21T05:01:19;3.35;;;3.03;;
17340;SDS011;8788;49.930;8.660;2022-08-21T05:03:49;5.55;;;3.42;;
17340;SDS011;8788;49.930;8.660;2022-08-21T05:06:20;5.72;;;3.50;;
17340;SDS011;8788;49.930;8.660;2022-08-21T05:08:49;5.00;;;3.05;;
17340;SDS011;8788;49.930;8.660;2022-08-21T05:11:20;4.45;;;3.40;;
17340;SDS011;8788;49.930;8.660;2022-08-21T05:13:47;5.82;;;3.22;;
17340;SDS011;8788;49.930;8.660;2022-08-21T05:16:15;7.45;;;3.00;;
17340;SDS011;8788;49.930;8.660;2022-08-21T05:18:42;3.85;;;3.20;;
17340;SDS011;8788;49.930;8.660;2022-08-21T05:21:10;4.13;;;3.60;;
17340;SDS011;8788;49.930;8.660;2022-08-21T05:23:37;4.15;;;3.35;;
17340;SDS011;8788;49.930;8.660;2022-08-21T05:26:04;3.53;;;3.05;;
17340;SDS011;8788;49.930;8.660;2022-08-21T05:28:32;4.00;;;3.08;;
17340;SDS011;8788;49.930;8.660;2022-08-21T05:31:00;5.82;;;3.08;;
17340;SDS011;8788;49.930;8.660;2022-08-21T05:33:27;7.03;;;4.07;;
17340;SDS011;8788;49.930;8.660;2022-08-21T05:35:54;4.65;;;3.03;;
17340;SDS011;8788;49.930;8.660;2022-08-21T05:38:22;4.47;;;3.22;;
17340;SDS011;8788;49.930;8.660;2022-08-21T05:40:52;6.75;;;3.55;;
17340;SDS011;8788;49.930;8.660;2022-08-21T05:43:20;4.05;;;3.28;;
17340;SDS011;8788;49.930;8.660;2022-08-21T05:45:48;4.45;;;3.03;;
17340;SDS011;8788;49.930;8.660;2022-08-21T05:48:16;6.18;;;3.50;;
17340;SDS011;8788;49.930;8.660;2022-08-21T05:50:46;4.00;;;2.97;;
17340;SDS011;8788;49.930;8.660;2022-08-21T05:53:14;4.85;;;3.88;;
17340;SDS011;8788;49.930;8.660;2022-08-21T05:55:44;5.60;;;3.28;;
17340;SDS011;8788;49.930;8.660;2022-08-21T05:58:12;4.40;;;3.67;;
17340;SDS011;8788;49.930;8.660;2022-08-21T06:00:40;3.88;;;3.25;;
17340;SDS011;8788;49.930;8.660;2022-08-21T06:03:11;6.40;;;3.53;;
17340;SDS011;8788;49.930;8.660;2022-08-21T06:05:40;6.22;;;3.60;;
17340;SDS011;8788;49.930;8.660;2022-08-21T06:08:07;8.40;;;4.00;;
17340;SDS011;8788;49.930;8.660;2022-08-21T06:10:34;5.68;;;3.53;;
17340;SDS011;8788;49.930;8.660;2022-08-21T06:13:02;3.97;;;3.40;;
17340;SDS011;8788;49.930;8.660;2022-08-21T06:15:29;9.52;;;3.85;;
17340;SDS011;8788;49.930;8.660;2022-08-21T06:17:57;4.63;;;3.58;;
17340;SDS011;8788;49.930;8.660;2022-08-21T06:20:25;4.53;;;3.63;;
17340;SDS011;8788;49.930;8.660;2022-08-21T06:22:53;4.18;;;3.55;;
17340;SDS011;8788;49.930;8.660;2022-08-21T06:25:20;5.35;;;3.42;;
17340;SDS011;8788;49.930;8.660;2022-08-21T06:27:47;7.43;;;3.85;;
17340;SDS011;8788;49.930;8.660;2022-08-21T06:30:14;4.40;;;3.42;;
17340;SDS011;8788;49.930;8.660;2022-08-21T06:32:42;4.15;;;2.80;;
17340;SDS011;8788;49.930;8.660;2022-08-21T06:35:09;4.00;;;2.85;;
17340;SDS011;8788;49.930;8.660;2022-08-21T06:37:38;4.93;;;3.35;;
17340;SDS011;8788;49.930;8.660;2022-08-21T06:40:05;3.80;;;2.42;;
17340;SDS011;8788;49.930;8.660;2022-08-21T06:42:33;5.88;;;3.08;;
17340;SDS011;8788;49.930;8.660;2022-08-21T06:45:01;4.30;;;2.70;;
17340;SDS011;8788;49.930;8.660;2022-08-21T06:47:28;4.18;;;2.60;;
17340;SDS011;8788;49.930;8.660;2022-08-21T06:49:55;4.00;;;3.30;;
17340;SDS011;8788;49.930;8.660;2022-08-21T06:52:22;13.25;;;3.53;;
17340;SDS011;8788;49.930;8.660;2022-08-21T06:54:51;4.65;;;3.33;;
17340;SDS011;8788;49.930;8.660;2022-08-21T06:57:18;4.40;;;3.45;;
17340;SDS011;8788;49.930;8.660;2022-08-21T06:59:45;4.75;;;2.95;;
17340;SDS011;8788;49.930;8.660;2022-08-21T07:02:12;5.22;;;3.25;;
17340;SDS011;8788;49.930;8.660;2022-08-21T07:04:39;6.32;;;3.75;;
17340;SDS011;8788;49.930;8.660;2022-08-21T07:07:06;4.45;;;3.17;;
17340;SDS011;8788;49.930;8.660;2022-08-21T07:09:33;8.15;;;3.78;;
17340;SDS011;8788;49.930;8.660;2022-08-21T07:12:02;5.10;;;2.97;;
17340;SDS011;8788;49.930;8.660;2022-08-21T07:14:30;3.55;;;3.13;;
17340;SDS011;8788;49.930;8.660;2022-08-21T07:16:57;5.45;;;3.38;;
17340;SDS011;8788;49.930;8.660;2022-08-21T07:19:24;7.18;;;3.85;;
17340;SDS011;8788;49.930;8.660;2022-08-21T07:21:52;7.38;;;3.63;;
17340;SDS011;8788;49.930;8.660;2022-08-21T07:24:23;5.68;;;3.67;;
17340;SDS011;8788;49.930;8.660;2022-08-21T07:26:50;6.32;;;3.83;;
17340;SDS011;8788;49.930;8.660;2022-08-21T07:29:19;5.88;;;3.10;;
17340;SDS011;8788;49.930;8.660;2022-08-21T07:31:46;6.32;;;3.38;;
17340;SDS011;8788;49.930;8.660;2022-08-21T07:34:14;4.35;;;3.50;;
17340;SDS011;8788;49.930;8.660;2022-08-21T07:36:41;8.85;;;3.58;;
17340;SDS011;8788;49.930;8.660;2022-08-21T07:39:08;7.78;;;3.88;;
17340;SDS011;8788;49.930;8.660;2022-08-21T07:41:35;6.45;;;2.83;;
17340;SDS011;8788;49.930;8.660;2022-08-21T07:44:03;4.40;;;3.20;;
17340;SDS011;8788;49.930;8.660;2022-08-21T07:46:31;5.18;;;3.28;;
17340;SDS011;8788;49.930;8.660;2022-08-21T07:48:58;8.18;;;4.32;;
17340;SDS011;8788;49.930;8.660;2022-08-21T07:51:26;6.32;;;3.97;;
17340;SDS011;8788;49.930;8.660;2022-08-21T07:53:56;6.43;;;4.18;;
17340;SDS011;8788;49.930;8.660;2022-08-21T07:56:24;5.38;;;4.60;;
17340;SDS011;8788;49.930;8.660;2022-08-21T07:58:51;7.35;;;4.00;;
17340;SDS011;8788;49.930;8.660;2022-08-21T08:01:19;7.28;;;4.78;;
17340;SDS011;8788;49.930;8.660;2022-08-21T08:03:48;5.78;;;4.18;;
17340;SDS011;8788;49.930;8.660;2022-08-21T08:06:16;6.93;;;4.00;;
17340;SDS011;8788;49.930;8.660;2022-08-21T08:08:44;6.80;;;4.25;;
17340;SDS011;8788;49.930;8.660;2022-08-21T08:11:12;7.88;;;4.53;;
17340;SDS011;8788;49.930;8.660;2022-08-21T08:13:40;6.45;;;5.40;;
17340;SDS011;8788;49.930;8.660;2022-08-21T08:16:09;6.50;;;5.07;;
17340;SDS011;8788;49.930;8.660;2022-08-21T08:18:36;8.90;;;5.20;;
17340;SDS011;8788;49.930;8.660;2022-08-21T08:21:05;6.15;;;5.00;;
17340;SDS011;8788;49.930;8.660;2022-08-21T08:23:32;4.88;;;3.83;;
17340;SDS011;8788;49.930;8.660;2022-08-21T08:26:00;5.18;;;3.97;;
17340;SDS011;8788;49.930;8.660;2022-08-21T08:28:29;7.50;;;4.22;;
17340;SDS011;8788;49.930;8.660;2022-08-21T08:30:56;5.55;;;3.30;;
17340;SDS011;8788;49.930;8.660;2022-08-21T08:33:24;3.42;;;3.10;;
17340;SDS011;8788;49.930;8.660;2022-08-21T08:35:51;3.25;;;2.95;;
17340;SDS011;8788;49.930;8.660;2022-08-21T08:38:20;4.18;;;3.28;;
17340;SDS011;8788;49.930;8.660;2022-08-21T08:40:50;9.07;;;3.97;;
17340;SDS011;8788;49.930;8.660;2022-08-21T08:43:22;4.13;;;2.60;;
17340;SDS011;8788;49.930;8.660;2022-08-21T08:45:50;4.85;;;3.17;;
17340;SDS011;8788;49.930;8.660;2022-08-21T08:48:30;5.63;;;2.60;;
17340;SDS011;8788;49.930;8.660;2022-08-21T08:51:06;3.85;;;2.97;;
17340;SDS011;8788;49.930;8.660;2022-08-21T08:53:45;4.45;;;3.47;;
17340;SDS011;8788;49.930;8.660;2022-08-21T08:56:15;4.82;;;3.50;;
17340;SDS011;8788;49.930;8.660;2022-08-21T08:58:49;5.07;;;3.50;;
17340;SDS011;8788;49.930;8.660;2022-08-21T09:01:19;5.30;;;3.80;;
17340;SDS011;8788;49.930;8.660;2022-08-21T09:03:50;3.72;;;3.15;;
17340;SDS011;8788;49.930;8.660;2022-08-21T09:06:21;4.80;;;3.83;;
17340;SDS011;8788;49.930;8.660;2022-08-21T09:08:58;4.43;;;3.85;;
17340;SDS011;8788;49.930;8.660;2022-08-21T09:11:36;6.65;;;3.63;;
17340;SDS011;8788;49.930;8.660;2022-08-21T09:14:10;4.82;;;3.40;;
17340;SDS011;8788;49.930;8.660;2022-08-21T09:16:46;4.70;;;3.65;;
17340;SDS011;8788;49.930;8.660;2022-08-21T09:19:28;3.92;;;3.35;;
17340;SDS011;8788;49.930;8.660;2022-08-21T09:22:07;5.00;;;2.78;;
17340;SDS011;8788;49.930;8.660;2022-08-21T09:24:46;4.68;;;2.58;;
17340;SDS011;8788;49.930;8.660;2022-08-21T09:27:20;5.55;;;2.45;;
17340;SDS011;8788;49.930;8.660;2022-08-21T09:29:50;5.13;;;2.72;;
17340;SDS011;8788;49.930;8.660;2022-08-21T09:32:23;4.03;;;2.88;;
17340;SDS011;8788;49.930;8.660;2022-08-21T09:34:56;4.00;;;2.60;;
17340;SDS011;8788;49.930;8.660;2022-08-21T09:37:25;4.50;;;2.83;;
17340;SDS011;8788;49.930;8.660;2022-08-21T09:39:56;4.78;;;2.60;;
17340;SDS011;8788;49.930;8.660;2022-08-21T09:42:26;5.25;;;2.42;;
17340;SDS011;8788;49.930;8.660;2022-08-21T09:45:05;6.20;;;1.98;;
17340;SDS011;8788;49.930;8.660;2022-08-21T09:47:39;4.25;;;2.20;;
17340;SDS011;8788;49.930;8.660;2022-08-21T09:50:07;5.10;;;2.35;;
17340;SDS011;8788;49.930;8.660;2022-08-21T09:52:41;3.92;;;2.33;;
17340;SDS011;8788;49.930;8.660;2022-08-21T09:55:16;3.85;;;2.13;;
17340;SDS011;8788;49.930;8.660;2022-08-21T09:58:03;4.78;;;2.08;;
17340;SDS011;8788;49.930;8.660;2022-08-21T10:00:32;2.05;;;1.75;;
17340;SDS011;8788;49.930;8.660;2022-08-21T10:03:07;2.90;;;1.67;;
17340;SDS011;8788;49.930;8.660;2022-08-21T10:05:36;3.42;;;1.85;;
17340;SDS011;8788;49.930;8.660;2022-08-21T10:08:04;3.05;;;2.05;;
17340;SDS011;8788;49.930;8.660;2022-08-21T10:10:36;6.20;;;2.08;;
17340;SDS011;8788;49.930;8.660;2022-08-21T10:13:05;4.15;;;2.13;;
17340;SDS011;8788;49.930;8.660;2022-08-21T10:15:39;3.45;;;1.98;;
17340;SDS011;8788;49.930;8.660;2022-08-21T10:18:17;3.58;;;1.73;;
17340;SDS011;8788;49.930;8.660;2022-08-21T10:20:51;2.67;;;1.67;;
17340;SDS011;8788;49.930;8.660;2022-08-21T10:23:39;3.25;;;1.80;;
17340;SDS011;8788;49.930;8.660;2022-08-21T10:26:20;5.55;;;2.08;;
17340;SDS011;8788;49.930;8.660;2022-08-21T10:29:00;4.65;;;2.80;;
17340;SDS011;8788;49.930;8.660;2022-08-21T10:31:36;2.28;;;1.80;;
17340;SDS011;8788;49.930;8.660;2022-08-21T10:34:15;2.40;;;1.88;;
17340;SDS011;8788;49.930;8.660;2022-08-21T10:36:59;4.72;;;2.15;;
17340;SDS011;8788;49.930;8.660;2022-08-21T10:39:33;4.63;;;2.00;;
17340;SDS011;8788;49.930;8.660;2022-08-21T10:42:11;5.45;;;2.80;;
17340;SDS011;8788;49.930;8.660;2022-08-21T10:44:49;3.53;;;1.90;;
17340;SDS011;8788;49.930;8.660;2022-08-21T10:47:24;2.22;;;1.58;;
17340;SDS011;8788;49.930;8.660;2022-08-21T10:50:00;5.55;;;1.90;;
17340;SDS011;8788;49.930;8.660;2022-08-21T10:52:43;3.75;;;2.45;;
17340;SDS011;8788;49.930;8.660;2022-08-21T10:55:23;4.22;;;2.03;;
17340;SDS011;8788;49.930;8.660;2022-08-21T10:57:58;3.80;;;2.03;;
17340;SDS011;8788;49.930;8.660;2022-08-21T11:00:29;4.88;;;2.25;;
17340;SDS011;8788;49.930;8.660;2022-08-21T11:03:05;2.90;;;1.85;;
17340;SDS011;8788;49.930;8.660;2022-08-21T11:05:38;3.05;;;1.83;;
17340;SDS011;8788;49.930;8.660;2022-08-21T11:08:09;2.30;;;1.88;;
17340;SDS011;8788;49.930;8.660;2022-08-21T11:10:40;3.13;;;1.90;;
17340;SDS011;8788;49.930;8.660;2022-08-21T11:13:14;3.17;;;2.10;;
17340;SDS011;8788;49.930;8.660;2022-08-21T11:15:51;6.10;;;2.30;;
17340;SDS011;8788;49.930;8.660;2022-08-21T11:18:27;6.47;;;2.05;;
17340;SDS011;8788;49.930;8.660;2022-08-21T11:21:03;4.60;;;1.88;;
17340;SDS011;8788;49.930;8.660;2022-08-21T11:23:44;2.10;;;1.83;;
17340;SDS011;8788;49.930;8.660;2022-08-21T11:26:17;2.92;;;1.73;;
17340;SDS011;8788;49.930;8.660;2022-08-21T11:28:58;2.53;;;1.77;;
17340;SDS011;8788;49.930;8.660;2022-08-21T11:31:35;3.80;;;2.03;;
17340;SDS011;8788;49.930;8.660;2022-08-21T11:34:17;4.60;;;2.38;;
17340;SDS011;8788;49.930;8.660;2022-08-21T11:36:57;4.65;;;1.90;;
17340;SDS011;8788;49.930;8.660;2022-08-21T11:39:33;3.28;;;2.13;;
17340;SDS011;8788;49.930;8.660;2022-08-21T11:42:13;3.63;;;1.90;;
17340;SDS011;8788;49.930;8.660;2022-08-21T11:44:51;3.33;;;2.08;;
17340;SDS011;8788;49.930;8.660;2022-08-21T11:47:31;3.83;;;2.10;;
17340;SDS011;8788;49.930;8.660;2022-08-21T11:50:12;2.47;;;1.70;;
17340;SDS011;8788;49.930;8.660;2022-08-21T11:52:43;3.20;;;2.17;;
17340;SDS011;8788;49.930;8.660;2022-08-21T11:55:16;2.90;;;2.33;;
17340;SDS011;8788;49.930;8.660;2022-08-21T11:57:50;3.40;;;2.05;;
17340;SDS011;8788;49.930;8.660;2022-08-21T12:00:25;3.35;;;2.17;;
17340;SDS011;8788;49.930;8.660;2022-08-21T12:02:57;2.45;;;1.92;;
17340;SDS011;8788;49.930;8.660;2022-08-21T12:05:33;5.07;;;1.90;;
17340;SDS011;8788;49.930;8.660;2022-08-21T12:08:05;4.50;;;2.08;;
17340;SDS011;8788;49.930;8.660;2022-08-21T12:10:37;3.10;;;2.03;;
17340;SDS011;8788;49.930;8.660;2022-08-21T12:13:07;2.67;;;1.70;;
17340;SDS011;8788;49.930;8.660;2022-08-21T12:15:40;2.35;;;1.88;;
17340;SDS011;8788;49.930;8.660;2022-08-21T12:18:18;2.70;;;1.80;;
17340;SDS011;8788;49.930;8.660;2022-08-21T12:20:57;2.05;;;1.70;;
17340;SDS011;8788;49.930;8.660;2022-08-21T12:23:27;3.60;;;1.90;;
17340;SDS011;8788;49.930;8.660;2022-08-21T12:29:05;2.63;;;1.95;;
17340;SDS011;8788;49.930;8.660;2022-08-21T12:31:49;3.35;;;1.83;;
17340;SDS011;8788;49.930;8.660;2022-08-21T12:34:22;7.40;;;1.88;;
17340;SDS011;8788;49.930;8.660;2022-08-21T12:36:53;2.42;;;1.55;;
17340;SDS011;8788;49.930;8.660;2022-08-21T12:39:24;3.53;;;1.85;;
17340;SDS011;8788;49.930;8.660;2022-08-21T12:41:56;3.67;;;1.77;;
17340;SDS011;8788;49.930;8.660;2022-08-21T12:44:27;3.53;;;1.63;;
17340;SDS011;8788;49.930;8.660;2022-08-21T12:47:06;1.80;;;1.63;;
17340;SDS011;8788;49.930;8.660;2022-08-21T12:49:43;4.93;;;1.85;;
17340;SDS011;8788;49.930;8.660;2022-08-21T12:52:19;2.92;;;1.65;;
17340;SDS011;8788;49.930;8.660;2022-08-21T12:54:49;1.58;;;1.48;;
17340;SDS011;8788;49.930;8.660;2022-08-21T12:57:20;3.90;;;1.80;;
17340;SDS011;8788;49.930;8.660;2022-08-21T12:59:53;3.25;;;2.08;;
17340;SDS011;8788;49.930;8.660;2022-08-21T13:02:23;3.45;;;1.67;;
17340;SDS011;8788;49.930;8.660;2022-08-21T13:04:52;3.47;;;1.70;;
17340;SDS011;8788;49.930;8.660;2022-08-21T13:07:24;2.28;;;1.65;;
17340;SDS011;8788;49.930;8.660;2022-08-21T13:09:55;2.45;;;1.50;;
17340;SDS011;8788;49.930;8.660;2022-08-21T13:12:26;2.72;;;1.65;;
17340;SDS011;8788;49.930;8.660;2022-08-21T13:14:55;2.45;;;1.50;;
17340;SDS011;8788;49.930;8.660;2022-08-21T13:17:25;4.47;;;1.85;;
17340;SDS011;8788;49.930;8.660;2022-08-21T13:19:54;3.40;;;1.40;;
17340;SDS011;8788;49.930;8.660;2022-08-21T13:22:24;2.97;;;1.80;;
17340;SDS011;8788;49.930;8.660;2022-08-21T13:24:52;3.85;;;1.85;;
17340;SDS011;8788;49.930;8.660;2022-08-21T13:27:21;5.30;;;1.98;;
17340;SDS011;8788;49.930;8.660;2022-08-21T13:30:00;4.40;;;1.75;;
17340;SDS011;8788;49.930;8.660;2022-08-21T13:32:37;3.33;;;1.70;;
17340;SDS011;8788;49.930;8.660;2022-08-21T13:35:08;2.50;;;1.38;;
17340;SDS011;8788;49.930;8.660;2022-08-21T13:37:38;2.55;;;1.58;;
17340;SDS011;8788;49.930;8.660;2022-08-21T13:40:07;3.13;;;1.80;;
17340;SDS011;8788;49.930;8.660;2022-08-21T13:42:40;4.07;;;2.05;;
17340;SDS011;8788;49.930;8.660;2022-08-21T13:45:20;3.00;;;1.58;;
17340;SDS011;8788;49.930;8.660;2022-08-21T13:47:52;2.90;;;2.28;;
17340;SDS011;8788;49.930;8.660;2022-08-21T13:50:22;1.95;;;1.33;;
17340;SDS011;8788;49.930;8.660;2022-08-21T13:52:55;4.15;;;1.80;;
17340;SDS011;8788;49.930;8.660;2022-08-21T13:55:25;4.13;;;2.03;;
17340;SDS011;8788;49.930;8.660;2022-08-21T13:58:00;2.50;;;1.92;;
17340;SDS011;8788;49.930;8.660;2022-08-21T14:00:30;4.05;;;1.55;;
17340;SDS011;8788;49.930;8.660;2022-08-21T14:03:02;2.75;;;2.15;;
17340;SDS011;8788;49.930;8.660;2022-08-21T14:05:33;2.47;;;1.80;;
17340;SDS011;8788;49.930;8.660;2022-08-21T14:08:04;2.97;;;1.77;;
17340;SDS011;8788;49.930;8.660;2022-08-21T14:10:35;3.67;;;1.60;;
17340;SDS011;8788;49.930;8.660;2022-08-21T14:13:07;4.55;;;1.65;;
17340;SDS011;8788;49.930;8.660;2022-08-21T14:15:54;2.63;;;1.67;;
17340;SDS011;8788;49.930;8.660;2022-08-21T14:18:24;1.48;;;1.30;;
17340;SDS011;8788;49.930;8.660;2022-08-21T14:20:52;1.98;;;1.33;;
17340;SDS011;8788;49.930;8.660;2022-08-21T14:23:29;1.60;;;1.15;;
17340;SDS011;8788;49.930;8.660;2022-08-21T14:25:58;2.60;;;1.63;;
17340;SDS011;8788;49.930;8.660;2022-08-21T14:28:27;2.10;;;1.60;;
17340;SDS011;8788;49.930;8.660;2022-08-21T14:30:57;2.45;;;1.77;;
17340;SDS011;8788;49.930;8.660;2022-08-21T14:33:27;2.05;;;1.27;;
17340;SDS011;8788;49.930;8.660;2022-08-21T14:35:56;2.40;;;1.40;;
17340;SDS011;8788;49.930;8.660;2022-08-21T14:38:24;5.45;;;1.60;;
17340;SDS011;8788;49.930;8.660;2022-08-21T14:40:54;3.28;;;1.77;;
17340;SDS011;8788;49.930;8.660;2022-08-21T14:43:23;3.20;;;1.85;;
17340;SDS011;8788;49.930;8.660;2022-08-21T14:45:52;4.25;;;1.55;;
17340;SDS011;8788;49.930;8.660;2022-08-21T14:48:20;2.70;;;1.65;;
17340;SDS011;8788;49.930;8.660;2022-08-21T14:50:49;6.82;;;1.55;;
17340;SDS011;8788;49.930;8.660;2022-08-21T14:53:16;2.05;;;1.50;;
17340;SDS011;8788;49.930;8.660;2022-08-21T14:55:43;2.03;;;1.42;;
17340;SDS011;8788;49.930;8.660;2022-08-21T14:58:28;2.42;;;1.50;;
17340;SDS011;8788;49.930;8.660;2022-08-21T15:00:55;4.03;;;1.90;;
17340;SDS011;8788;49.930;8.660;2022-08-21T15:03:23;2.95;;;1.40;;
17340;SDS011;8788;49.930;8.660;2022-08-21T15:05:52;3.40;;;1.70;;
17340;SDS011;8788;49.930;8.660;2022-08-21T15:08:19;2.65;;;1.27;;
17340;SDS011;8788;49.930;8.660;2022-08-21T15:10:47;2.65;;;1.45;;
17340;SDS011;8788;49.930;8.660;2022-08-21T15:13:14;2.30;;;1.17;;
17340;SDS011;8788;49.930;8.660;2022-08-21T15:15:43;1.67;;;1.40;;
17340;SDS011;8788;49.930;8.660;2022-08-21T15:18:12;1.95;;;1.50;;
17340;SDS011;8788;49.930;8.660;2022-08-21T15:20:40;2.95;;;1.40;;
17340;SDS011;8788;49.930;8.660;2022-08-21T15:23:09;2.65;;;1.65;;
17340;SDS011;8788;49.930;8.660;2022-08-21T15:25:36;3.13;;;1.60;;
17340;SDS011;8788;49.930;8.660;2022-08-21T15:28:06;2.15;;;1.65;;
17340;SDS011;8788;49.930;8.660;2022-08-21T15:30:33;2.53;;;1.30;;
17340;SDS011;8788;49.930;8.660;2022-08-21T15:33:01;4.68;;;1.30;;
17340;SDS011;8788;49.930;8.660;2022-08-21T15:35:28;2.33;;;1.40;;
17340;SDS011;8788;49.930;8.660;2022-08-21T15:37:56;4.88;;;1.25;;
17340;SDS011;8788;49.930;8.660;2022-08-21T15:40:24;2.08;;;1.60;;
17340;SDS011;8788;49.930;8.660;2022-08-21T15:42:52;1.90;;;1.15;;
17340;SDS011;8788;49.930;8.660;2022-08-21T15:45:25;1.63;;;1.40;;
17340;SDS011;8788;49.930;8.660;2022-08-21T15:47:52;3.58;;;1.85;;
17340;SDS011;8788;49.930;8.660;2022-08-21T15:50:20;1.67;;;1.55;;
17340;SDS011;8788;49.930;8.660;2022-08-21T15:52:47;2.45;;;1.40;;
17340;SDS011;8788;49.930;8.660;2022-08-21T15:55:15;2.45;;;1.52;;
17340;SDS011;8788;49.930;8.660;2022-08-21T15:57:44;2.78;;;1.60;;
17340;SDS011;8788;49.930;8.660;2022-08-21T16:00:15;1.92;;;1.50;;
17340;SDS011;8788;49.930;8.660;2022-08-21T16:02:44;2.38;;;1.10;;
17340;SDS011;8788;49.930;8.660;2022-08-21T16:05:14;3.25;;;1.58;;
17340;SDS011;8788;49.930;8.660;2022-08-21T16:07:49;2.00;;;1.30;;
17340;SDS011;8788;49.930;8.660;2022-08-21T16:10:19;2.17;;;1.45;;
17340;SDS011;8788;49.930;8.660;2022-08-21T16:12:50;2.50;;;1.60;;
17340;SDS011;8788;49.930;8.660;2022-08-21T16:15:20;3.70;;;1.60;;
17340;SDS011;8788;49.930;8.660;2022-08-21T16:17:48;2.20;;;1.42;;
17340;SDS011;8788;49.930;8.660;2022-08-21T16:20:18;2.08;;;1.65;;
17340;SDS011;8788;49.930;8.660;2022-08-21T16:22:47;1.98;;;1.77;;
17340;SDS011;8788;49.930;8.660;2022-08-21T16:25:14;2.30;;;1.55;;
17340;SDS011;8788;49.930;8.660;2022-08-21T16:27:42;2.13;;;1.67;;
17340;SDS011;8788;49.930;8.660;2022-08-21T16:30:16;2.90;;;1.60;;
17340;SDS011;8788;49.930;8.660;2022-08-21T16:32:44;4.10;;;1.23;;
17340;SDS011;8788;49.930;8.660;2022-08-21T16:35:13;3.45;;;1.58;;
17340;SDS011;8788;49.930;8.660;2022-08-21T16:37:43;2.60;;;1.75;;
17340;SDS011;8788;49.930;8.660;2022-08-21T16:40:11;2.67;;;1.45;;
17340;SDS011;8788;49.930;8.660;2022-08-21T16:42:39;2.45;;;1.13;;
17340;SDS011;8788;49.930;8.660;2022-08-21T16:45:08;3.08;;;1.80;;
17340;SDS011;8788;49.930;8.660;2022-08-21T16:47:38;4.00;;;1.42;;
17340;SDS011;8788;49.930;8.660;2022-08-21T16:50:06;3.22;;;1.73;;
17340;SDS011;8788;49.930;8.660;2022-08-21T16:52:33;1.95;;;1.15;;
17340;SDS011;8788;49.930;8.660;2022-08-21T16:55:01;3.40;;;1.63;;
17340;SDS011;8788;49.930;8.660;2022-08-21T16:57:29;2.65;;;1.42;;
17340;SDS011;8788;49.930;8.660;2022-08-21T16:59:56;2.15;;;1.65;;
17340;SDS011;8788;49.930;8.660;2022-08-21T17:02:26;1.45;;;1.23;;
17340;SDS011;8788;49.930;8.660;2022-08-21T17:04:58;3.03;;;1.75;;
17340;SDS011;8788;49.930;8.660;2022-08-21T17:07:26;1.20;;;1.10;;
17340;SDS011;8788;49.930;8.660;2022-08-21T17:09:54;2.22;;;1.20;;
17340;SDS011;8788;49.930;8.660;2022-08-21T17:12:21;3.58;;;2.08;;
17340;SDS011;8788;49.930;8.660;2022-08-21T17:14:48;4.65;;;1.52;;
17340;SDS011;8788;49.930;8.660;2022-08-21T17:17:15;3.72;;;1.45;;
17340;SDS011;8788;49.930;8.660;2022-08-21T17:19:43;6.07;;;1.63;;
17340;SDS011;8788;49.930;8.660;2022-08-21T17:22:12;2.05;;;1.48;;
17340;SDS011;8788;49.930;8.660;2022-08-21T17:24:39;5.07;;;1.40;;
17340;SDS011;8788;49.930;8.660;2022-08-21T17:27:06;3.88;;;1.30;;
17340;SDS011;8788;49.930;8.660;2022-08-21T17:29:35;1.38;;;1.27;;
17340;SDS011;8788;49.930;8.660;2022-08-21T17:32:04;2.50;;;1.42;;
17340;SDS011;8788;49.930;8.660;2022-08-21T17:34:35;2.45;;;1.48;;
17340;SDS011;8788;49.930;8.660;2022-08-21T17:37:07;2.58;;;1.50;;
17340;SDS011;8788;49.930;8.660;2022-08-21T17:39:35;3.10;;;1.52;;
17340;SDS011;8788;49.930;8.660;2022-08-21T17:42:03;2.40;;;1.50;;
17340;SDS011;8788;49.930;8.660;2022-08-21T17:44:33;2.85;;;1.08;;
17340;SDS011;8788;49.930;8.660;2022-08-21T17:47:03;4.43;;;1.83;;
17340;SDS011;8788;49.930;8.660;2022-08-21T17:49:30;1.40;;;1.27;;
17340;SDS011;8788;49.930;8.660;2022-08-21T17:51:57;5.00;;;1.17;;
17340;SDS011;8788;49.930;8.660;2022-08-21T17:54:25;3.17;;;1.70;;
17340;SDS011;8788;49.930;8.660;2022-08-21T17:56:54;2.33;;;1.63;;
17340;SDS011;8788;49.930;8.660;2022-08-21T17:59:22;3.03;;;1.60;;
17340;SDS011;8788;49.930;8.660;2022-08-21T18:01:50;2.83;;;1.52;;
17340;SDS011;8788;49.930;8.660;2022-08-21T18:04:21;2.38;;;1.63;;
17340;SDS011;8788;49.930;8.660;2022-08-21T18:06:49;2.13;;;1.67;;
17340;SDS011;8788;49.930;8.660;2022-08-21T18:09:16;2.08;;;1.50;;
17340;SDS011;8788;49.930;8.660;2022-08-21T18:11:45;3.90;;;1.80;;
17340;SDS011;8788;49.930;8.660;2022-08-21T18:14:13;3.95;;;1.92;;
17340;SDS011;8788;49.930;8.660;2022-08-21T18:16:41;1.42;;;1.33;;
17340;SDS011;8788;49.930;8.660;2022-08-21T18:19:09;2.60;;;1.73;;
17340;SDS011;8788;49.930;8.660;2022-08-21T18:21:40;4.63;;;1.48;;
17340;SDS011;8788;49.930;8.660;2022-08-21T18:24:07;4.13;;;1.88;;
17340;SDS011;8788;49.930;8.660;2022-08-21T18:26:35;4.10;;;1.90;;
17340;SDS011;8788;49.930;8.660;2022-08-21T18:29:05;2.00;;;1.67;;
17340;SDS011;8788;49.930;8.660;2022-08-21T18:31:36;2.92;;;1.73;;
17340;SDS011;8788;49.930;8.660;2022-08-21T18:34:10;3.13;;;1.60;;
17340;SDS011;8788;49.930;8.660;2022-08-21T18:36:44;3.03;;;1.75;;
17340;SDS011;8788;49.930;8.660;2022-08-21T18:39:11;4.53;;;1.60;;
17340;SDS011;8788;49.930;8.660;2022-08-21T18:41:38;3.40;;;2.13;;
17340;SDS011;8788;49.930;8.660;2022-08-21T18:44:06;4.70;;;2.58;;
17340;SDS011;8788;49.930;8.660;2022-08-21T18:46:33;2.58;;;1.63;;
17340;SDS011;8788;49.930;8.660;2022-08-21T18:49:01;3.33;;;1.70;;
17340;SDS011;8788;49.930;8.660;2022-08-21T18:51:29;3.58;;;2.08;;
17340;SDS011;8788;49.930;8.660;2022-08-21T18:53:56;4.30;;;1.60;;
17340;SDS011;8788;49.930;8.660;2022-08-21T18:56:23;2.08;;;1.40;;
17340;SDS011;8788;49.930;8.660;2022-08-21T18:58:51;2.10;;;1.70;;
17340;SDS011;8788;49.930;8.660;2022-08-21T19:01:22;1.92;;;1.73;;
17340;SDS011;8788;49.930;8.660;2022-08-21T19:03:49;4.03;;;1.73;;
17340;SDS011;8788;49.930;8.660;2022-08-21T19:06:18;1.25;;;1.00;;
17340;SDS011;8788;49.930;8.660;2022-08-21T19:08:45;2.17;;;1.50;;
17340;SDS011;8788;49.930;8.660;2022-08-21T19:11:12;2.42;;;1.10;;
17340;SDS011;8788;49.930;8.660;2022-08-21T19:13:39;1.58;;;1.20;;
17340;SDS011;8788;49.930;8.660;2022-08-21T19:16:07;2.65;;;1.35;;
17340;SDS011;8788;49.930;8.660;2022-08-21T19:18:36;1.70;;;1.60;;
17340;SDS011;8788;49.930;8.660;2022-08-21T19:21:06;4.38;;;1.77;;
17340;SDS011;8788;49.930;8.660;2022-08-21T19:23:34;2.42;;;1.20;;
17340;SDS011;8788;49.930;8.660;2022-08-21T19:26:03;4.13;;;1.85;;
17340;SDS011;8788;49.930;8.660;2022-08-21T19:28:33;2.42;;;1.60;;